Time;durP1;ratioP1;P1;durP2;ratioP2;P2;SDS_P1;SDS_P2;PMS_P1;PMS_P2;Temp;Humidity;BMP_temperature;BMP_pressure;BME280_temperature;BME280_humidity;BME280_pressure;Samples;Min_cycle;Max_cycle;Signal;HPM_P1;HPM_P2
2022/09/21 00:00:19;;;;;;;;;;;9.20;99.90;;;;;;5078911;28;20022;-83
2022/09/21 00:02:44;;;;;;;;;;;9.10;99.90;;;;;;5054472;28;20030;-78
2022/09/21 00:05:10;;;;;;;;;;;9.10;99.90;;;;;;5052960;28;19923;-78
2022/09/21 00:07:44;;;;;;;;;;;9.10;99.90;;;;;;5063096;28;19932;-78
2022/09/21 00:10:11;;;;;;;;;;;9.10;99.90;;;;;;5056495;28;19928;-79
2022/09/21 00:12:37;;;;;;;;;;;9.10;99.90;;;;;;5075641;28;19928;-79
2022/09/21 00:15:09;;;;;;;;;;;9.10;99.90;;;;;;5052665;28;19939;-79
2022/09/21 00:17:36;;;;;;;;;;;9.10;99.90;;;;;;5066484;28;19963;-78
2022/09/21 00:20:05;;;;;;;;;;;9.00;99.90;;;;;;5053176;28;19923;-80
2022/09/21 00:22:31;;;;;;;;;;;9.00;99.90;;;;;;5066039;28;20042;-79
2022/09/21 00:24:58;;;;;;;;;;;8.90;99.90;;;;;;5044212;28;19928;-79
2022/09/21 00:27:28;;;;;;;;;;;8.90;99.90;;;;;;5065413;28;20005;-78
2022/09/21 00:29:55;;;;;;;;;;;8.90;99.90;;;;;;5036533;28;19924;-78
2022/09/21 00:32:22;;;;;;;;;;;8.90;99.90;;;;;;5050686;28;20783;-78
2022/09/21 00:34:48;;;;;;;;;;;8.80;99.90;;;;;;5031035;28;20315;-79
2022/09/21 00:37:14;;;;;;;;;;;8.80;99.90;;;;;;5050369;28;19924;-78
2022/09/21 00:39:40;;;;;;;;;;;8.80;99.90;;;;;;5044866;28;19924;-80
2022/09/21 00:42:13;;;;;;;;;;;8.80;99.90;;;;;;5065548;28;20018;-78
2022/09/21 00:44:39;;;;;;;;;;;8.80;99.90;;;;;;5067394;28;20434;-78
2022/09/21 00:47:10;;;;;;;;;;;8.80;99.90;;;;;;5034055;28;20007;-78
2022/09/21 00:49:37;;;;;;;;;;;8.80;99.90;;;;;;5066622;28;20023;-79
2022/09/21 00:52:04;;;;;;;;;;;8.80;99.90;;;;;;5055024;28;20022;-78
2022/09/21 00:54:39;;;;;;;;;;;8.80;99.90;;;;;;5016889;28;19978;-78
2022/09/21 00:57:06;;;;;;;;;;;8.80;99.90;;;;;;5044831;28;19924;-78
2022/09/21 00:59:34;;;;;;;;;;;8.80;99.90;;;;;;5056654;28;19975;-79
2022/09/21 01:02:00;;;;;;;;;;;8.80;99.90;;;;;;5052835;28;19940;-80
2022/09/21 01:04:27;;;;;;;;;;;8.80;99.90;;;;;;5053274;28;20398;-79
2022/09/21 01:06:54;;;;;;;;;;;8.80;99.90;;;;;;5079932;28;19978;-78
2022/09/21 01:09:20;;;;;;;;;;;8.80;99.90;;;;;;5070718;28;19928;-80
2022/09/21 01:12:05;;;;;;;;;;;8.80;99.90;;;;;;5043116;28;19928;-78
2022/09/21 01:14:43;;;;;;;;;;;8.80;99.90;;;;;;5043242;28;19940;-78
2022/09/21 01:17:33;;;;;;;;;;;8.90;99.90;;;;;;5078278;28;19928;-78
2022/09/21 01:20:09;;;;;;;;;;;8.80;99.90;;;;;;5056707;28;19924;-79
2022/09/21 01:22:43;;;;;;;;;;;8.80;99.90;;;;;;5046486;28;19947;-78
2022/09/21 01:25:38;;;;;;;;;;;8.80;99.90;;;;;;5072232;28;19980;-79
2022/09/21 01:28:16;;;;;;;;;;;8.80;99.90;;;;;;5084544;28;19924;-79
2022/09/21 01:30:42;;;;;;;;;;;8.90;99.90;;;;;;5085037;28;19981;-79
2022/09/21 01:33:12;;;;;;;;;;;8.80;99.90;;;;;;5085744;28;19925;-79
2022/09/21 01:35:42;;;;;;;;;;;8.80;99.90;;;;;;5071828;28;20377;-82
2022/09/21 01:38:11;;;;;;;;;;;8.80;99.90;;;;;;5071168;28;19950;-79
2022/09/21 01:40:40;;;;;;;;;;;8.70;99.90;;;;;;5066641;28;19923;-78
2022/09/21 01:43:08;;;;;;;;;;;8.80;99.90;;;;;;5078808;28;19935;-79
2022/09/21 01:45:36;;;;;;;;;;;8.70;99.90;;;;;;5073479;28;19996;-79
2022/09/21 01:48:03;;;;;;;;;;;8.70;99.90;;;;;;5073808;28;20429;-79
2022/09/21 01:50:39;;;;;;;;;;;8.60;99.90;;;;;;5072892;28;20367;-80
2022/09/21 01:53:28;;;;;;;;;;;8.50;99.90;;;;;;5067288;28;19935;-79
2022/09/21 01:55:56;;;;;;;;;;;8.50;99.90;;;;;;5059920;28;19930;-80
2022/09/21 01:58:29;;;;;;;;;;;8.40;99.90;;;;;;5089113;28;19928;-79
2022/09/21 02:00:56;;;;;;;;;;;8.30;99.90;;;;;;5080599;28;19927;-79
2022/09/21 02:03:40;;;;;;;;;;;8.30;99.90;;;;;;5074071;28;19924;-79
2022/09/21 02:08:50;;;;;;;;;;;8.20;99.90;;;;;;5155156;22;20351;-79
2022/09/21 02:11:18;;;;;;;;;;;8.20;99.90;;;;;;5072060;28;20562;-80
2022/09/21 02:13:47;;;;;;;;;;;8.20;99.90;;;;;;5072398;28;19963;-81
2022/09/21 02:16:13;;;;;;;;;;;8.20;99.90;;;;;;5072707;28;20466;-79
2022/09/21 02:18:53;;;;;;;;;;;8.20;99.90;;;;;;5065327;28;20002;-80
2022/09/21 02:21:40;;;;;;;;;;;8.20;99.90;;;;;;5084107;28;20076;-80
2022/09/21 02:24:46;;;;;;;;;;;8.20;99.90;;;;;;5080696;28;19927;-79
2022/09/21 02:27:45;;;;;;;;;;;8.10;99.90;;;;;;5086456;28;20431;-79
2022/09/21 02:30:11;;;;;;;;;;;8.10;99.90;;;;;;5083931;28;19979;-80
2022/09/21 02:32:56;;;;;;;;;;;8.10;99.90;;;;;;5066636;28;19927;-81
2022/09/21 02:35:31;;;;;;;;;;;8.10;99.90;;;;;;5086621;28;19924;-79
2022/09/21 02:38:03;;;;;;;;;;;8.10;99.90;;;;;;5080487;28;20386;-79
2022/09/21 02:40:30;;;;;;;;;;;8.10;99.90;;;;;;5084046;28;20044;-80
2022/09/21 02:42:59;;;;;;;;;;;8.10;99.90;;;;;;5081596;28;20425;-80
2022/09/21 02:45:26;;;;;;;;;;;8.00;99.90;;;;;;5085383;28;19932;-80
2022/09/21 02:47:58;;;;;;;;;;;8.10;99.90;;;;;;5083969;28;20345;-82
2022/09/21 02:50:59;;;;;;;;;;;8.10;99.90;;;;;;5089462;28;20287;-82
2022/09/21 02:53:27;;;;;;;;;;;8.00;99.90;;;;;;5022414;28;20267;-80
2022/09/21 02:55:54;;;;;;;;;;;7.90;99.90;;;;;;5063625;28;19931;-80
2022/09/21 02:58:21;;;;;;;;;;;7.90;99.90;;;;;;5087081;28;19931;-80
2022/09/21 03:00:47;;;;;;;;;;;7.80;99.90;;;;;;5068885;28;19927;-80
2022/09/21 03:03:15;;;;;;;;;;;7.80;99.90;;;;;;5072429;28;20007;-81
2022/09/21 03:05:42;;;;;;;;;;;7.80;99.90;;;;;;5072341;28;19928;-80
2022/09/21 03:08:08;;;;;;;;;;;7.80;99.90;;;;;;5051534;28;19924;-80
2022/09/21 03:10:39;;;;;;;;;;;7.80;99.90;;;;;;5079184;28;20300;-80
2022/09/21 03:13:07;;;;;;;;;;;7.80;99.90;;;;;;5072367;28;20394;-80
2022/09/21 03:15:34;;;;;;;;;;;7.80;99.90;;;;;;5072858;28;19932;-80
2022/09/21 03:18:01;;;;;;;;;;;7.80;99.90;;;;;;5055615;28;19973;-79
2022/09/21 03:20:27;;;;;;;;;;;7.70;99.90;;;;;;5047719;28;20452;-79
2022/09/21 03:22:52;;;;;;;;;;;7.80;99.90;;;;;;5046516;28;20030;-80
2022/09/21 03:25:18;;;;;;;;;;;7.80;99.90;;;;;;5067550;28;19924;-79
2022/09/21 03:27:44;;;;;;;;;;;7.70;99.90;;;;;;5057604;28;19928;-79
2022/09/21 03:30:13;;;;;;;;;;;7.60;99.90;;;;;;5066534;28;19969;-80
2022/09/21 03:32:39;;;;;;;;;;;7.60;99.90;;;;;;5067983;28;20015;-80
2022/09/21 03:35:05;;;;;;;;;;;7.60;99.90;;;;;;5071943;28;20428;-83
2022/09/21 03:37:34;;;;;;;;;;;7.50;99.90;;;;;;5062989;28;19924;-80
2022/09/21 03:39:59;;;;;;;;;;;7.50;99.90;;;;;;5066580;28;19942;-80
2022/09/21 03:42:25;;;;;;;;;;;8.40;99.90;;;;;;5076836;28;20023;-79
2022/09/21 03:44:51;;;;;;;;;;;7.40;99.90;;;;;;5067756;28;20154;-80
2022/09/21 03:47:17;;;;;;;;;;;7.40;99.90;;;;;;5079264;28;19932;-80
2022/09/21 03:49:42;;;;;;;;;;;7.40;99.90;;;;;;5041522;28;19968;-81
2022/09/21 03:52:09;;;;;;;;;;;7.40;99.90;;;;;;5075643;28;19924;-80
2022/09/21 03:54:35;;;;;;;;;;;7.40;99.90;;;;;;5042240;28;19928;-80
2022/09/21 03:57:01;;;;;;;;;;;7.50;99.90;;;;;;5049738;28;20428;-81
2022/09/21 03:59:27;;;;;;;;;;;7.50;99.90;;;;;;5059088;28;20397;-80
2022/09/21 04:01:52;;;;;;;;;;;7.50;99.90;;;;;;5067931;28;19912;-83
2022/09/21 04:04:19;;;;;;;;;;;7.50;99.90;;;;;;5047265;28;20066;-82
2022/09/21 04:06:45;;;;;;;;;;;7.50;99.90;;;;;;5078059;28;19943;-81
2022/09/21 04:09:11;;;;;;;;;;;7.50;99.90;;;;;;5060289;28;20416;-80
2022/09/21 04:11:38;;;;;;;;;;;7.40;99.90;;;;;;5066502;28;19924;-83
2022/09/21 04:14:04;;;;;;;;;;;7.40;99.90;;;;;;5054360;28;20050;-80
2022/09/21 04:16:30;;;;;;;;;;;7.50;99.90;;;;;;5048518;28;20007;-81
2022/09/21 04:18:56;;;;;;;;;;;7.50;99.90;;;;;;5074738;28;20026;-81
2022/09/21 04:21:21;;;;;;;;;;;7.50;99.90;;;;;;5064557;28;20375;-82
2022/09/21 04:23:48;;;;;;;;;;;7.50;99.90;;;;;;5047527;28;19928;-82
2022/09/21 04:26:22;;;;;;;;;;;7.50;99.90;;;;;;5047640;28;20387;-81
2022/09/21 04:28:48;;;;;;;;;;;7.50;99.90;;;;;;5077467;28;19993;-81
2022/09/21 04:31:14;;;;;;;;;;;7.40;99.90;;;;;;5078573;28;20334;-81
2022/09/21 04:33:40;;;;;;;;;;;7.30;99.90;;;;;;5066404;28;19925;-81
2022/09/21 04:36:06;;;;;;;;;;;7.20;99.90;;;;;;5066932;28;19928;-82
2022/09/21 04:38:32;;;;;;;;;;;7.20;99.90;;;;;;5078169;28;19931;-82
2022/09/21 04:40:58;;;;;;;;;;;7.20;99.90;;;;;;5065926;28;19932;-85
2022/09/21 04:43:43;;;;;;;;;;;7.20;99.90;;;;;;5055175;28;19924;-89
2022/09/21 04:46:15;;;;;;;;;;;7.20;99.90;;;;;;5080200;28;19971;-82
2022/09/21 04:48:41;;;;;;;;;;;7.10;99.90;;;;;;5082641;28;20377;-87
2022/09/21 04:51:08;;;;;;;;;;;7.10;99.90;;;;;;5067841;28;19932;-82
2022/09/21 04:53:35;;;;;;;;;;;7.10;99.90;;;;;;5051132;28;19975;-89
2022/09/21 04:56:02;;;;;;;;;;;7.10;99.90;;;;;;5078020;28;20019;-83
2022/09/21 04:58:28;;;;;;;;;;;7.10;99.90;;;;;;5082547;28;19928;-82
2022/09/21 05:00:55;;;;;;;;;;;7.10;99.90;;;;;;5063612;28;19931;-82
2022/09/21 05:03:22;;;;;;;;;;;7.00;99.90;;;;;;5068022;28;19927;-82
2022/09/21 05:05:48;;;;;;;;;;;7.20;99.90;;;;;;5065479;28;19928;-81
2022/09/21 05:08:15;;;;;;;;;;;7.00;99.90;;;;;;5081610;28;19932;-82
2022/09/21 05:10:42;;;;;;;;;;;7.00;99.90;;;;;;5064911;28;19983;-83
2022/09/21 05:13:08;;;;;;;;;;;6.90;99.90;;;;;;5082093;28;19928;-81
2022/09/21 05:15:35;;;;;;;;;;;6.90;99.90;;;;;;5068557;28;19969;-84
2022/09/21 05:18:01;;;;;;;;;;;6.90;99.90;;;;;;5064129;28;19928;-83
2022/09/21 05:20:27;;;;;;;;;;;6.80;99.90;;;;;;5044714;28;19928;-83
2022/09/21 05:23:00;;;;;;;;;;;6.90;99.90;;;;;;5052554;28;20014;-82
2022/09/21 05:25:26;;;;;;;;;;;6.80;99.90;;;;;;5063599;28;19928;-82
2022/09/21 05:27:52;;;;;;;;;;;6.80;99.90;;;;;;5064329;28;20019;-83
2022/09/21 05:30:18;;;;;;;;;;;6.80;99.90;;;;;;5048236;28;19924;-82
2022/09/21 05:32:44;;;;;;;;;;;6.80;99.90;;;;;;5081844;28;19947;-83
2022/09/21 05:35:09;;;;;;;;;;;6.90;99.90;;;;;;5061589;28;20333;-83
2022/09/21 05:37:45;;;;;;;;;;;6.90;99.90;;;;;;5064266;28;19920;-83
2022/09/21 05:40:11;;;;;;;;;;;6.90;99.90;;;;;;5060472;23;19928;-83
2022/09/21 05:42:38;;;;;;;;;;;6.90;99.90;;;;;;5047172;22;19997;-85
2022/09/21 05:45:04;;;;;;;;;;;6.90;99.90;;;;;;5071385;27;19976;-82
2022/09/21 05:47:48;;;;;;;;;;;7.00;99.90;;;;;;5076198;28;19932;-83
2022/09/21 05:50:38;;;;;;;;;;;7.00;99.90;;;;;;5073712;28;19928;-81
2022/09/21 05:53:10;;;;;;;;;;;7.00;99.90;;;;;;5061058;28;19982;-81
2022/09/21 05:55:37;;;;;;;;;;;7.00;99.90;;;;;;5090267;27;19928;-83
2022/09/21 05:58:23;;;;;;;;;;;7.70;99.90;;;;;;5072375;28;20432;-80
2022/09/21 06:04:20;;;;;;;;;;;6.80;99.90;;;;;;5114912;28;20262;-82
2022/09/21 06:06:48;;;;;;;;;;;6.70;99.90;;;;;;5094416;28;20362;-82
2022/09/21 06:09:34;;;;;;;;;;;6.70;99.90;;;;;;5078587;28;19931;-83
2022/09/21 06:12:17;;;;;;;;;;;6.80;99.90;;;;;;5073213;27;19924;-82
2022/09/21 06:14:43;;;;;;;;;;;6.90;99.90;;;;;;5095504;28;20444;-81
2022/09/21 06:17:09;;;;;;;;;;;6.90;99.90;;;;;;5069775;28;19993;-80
2022/09/21 06:19:36;;;;;;;;;;;7.00;99.90;;;;;;5072016;28;20282;-82
2022/09/21 06:22:02;;;;;;;;;;;7.10;99.90;;;;;;5066648;28;19923;-81
2022/09/21 06:24:27;;;;;;;;;;;7.20;99.90;;;;;;5086425;28;19928;-79
2022/09/21 06:26:59;;;;;;;;;;;7.30;99.90;;;;;;5102236;28;19924;-79
2022/09/21 06:29:25;;;;;;;;;;;7.40;99.90;;;;;;5085697;28;20000;-79
2022/09/21 06:31:58;;;;;;;;;;;7.60;99.90;;;;;;5084216;28;20496;-82
2022/09/21 06:34:27;;;;;;;;;;;7.70;99.90;;;;;;5077806;27;19923;-80
2022/09/21 06:36:53;;;;;;;;;;;7.90;99.90;;;;;;5075284;28;19945;-81
2022/09/21 06:39:18;;;;;;;;;;;7.90;99.90;;;;;;5068925;28;19928;-79
2022/09/21 06:41:44;;;;;;;;;;;8.10;99.90;;;;;;5069662;28;19931;-79
2022/09/21 06:44:10;;;;;;;;;;;8.20;99.90;;;;;;5074900;28;19923;-79
2022/09/21 06:46:36;;;;;;;;;;;8.60;99.90;;;;;;5069693;28;19939;-80
2022/09/21 06:49:01;;;;;;;;;;;8.50;99.90;;;;;;5068848;28;19928;-79
2022/09/21 06:51:27;;;;;;;;;;;8.60;99.90;;;;;;5080617;28;19959;-81
2022/09/21 06:53:54;;;;;;;;;;;8.90;99.90;;;;;;5056347;28;20334;-79
2022/09/21 06:56:23;;;;;;;;;;;8.90;99.90;;;;;;5074385;28;19928;-82
2022/09/21 06:58:49;;;;;;;;;;;9.10;99.90;;;;;;5069784;28;19993;-86
2022/09/21 07:01:15;;;;;;;;;;;9.20;99.90;;;;;;5062252;28;19928;-79
2022/09/21 07:03:42;;;;;;;;;;;9.40;99.90;;;;;;5066431;28;19924;-81
2022/09/21 07:06:10;;;;;;;;;;;9.50;99.90;;;;;;5066339;28;20527;-84
2022/09/21 07:08:36;;;;;;;;;;;;;;;;;;5085800;28;20026;-80
2022/09/21 07:11:02;;;;;;;;;;;9.80;99.90;;;;;;5056369;28;19928;-80
2022/09/21 07:13:28;;;;;;;;;;;10.00;99.90;;;;;;5053118;28;19932;-79
2022/09/21 07:15:54;;;;;;;;;;;10.20;99.90;;;;;;5024860;28;20466;-78
2022/09/21 07:18:26;;;;;;;;;;;10.40;99.90;;;;;;5070655;28;20431;-79
2022/09/21 07:20:52;;;;;;;;;;;10.60;99.90;;;;;;5039120;28;20008;-79
2022/09/21 07:23:19;;;;;;;;;;;10.80;99.90;;;;;;5072708;28;19924;-79
2022/09/21 07:25:48;;;;;;;;;;;10.90;99.90;;;;;;5050565;28;19924;-78
2022/09/21 07:28:14;;;;;;;;;;;11.10;99.90;;;;;;5052020;28;19932;-78
2022/09/21 07:30:40;;;;;;;;;;;11.40;99.90;;;;;;5052525;28;19974;-78
2022/09/21 07:33:07;;;;;;;;;;;11.70;99.90;;;;;;5054490;28;19935;-78
2022/09/21 07:35:33;;;;;;;;;;;12.00;99.90;;;;;;5055860;28;20141;-80
2022/09/21 07:38:00;;;;;;;;;;;12.20;99.90;;;;;;5065724;28;20359;-78
2022/09/21 07:40:25;;;;;;;;;;;12.50;99.90;;;;;;5062775;28;19975;-79
2022/09/21 07:42:51;;;;;;;;;;;13.00;99.90;;;;;;5046053;28;20680;-79
2022/09/21 07:45:17;;;;;;;;;;;13.30;99.90;;;;;;5060033;28;20394;-79
2022/09/21 07:47:45;;;;;;;;;;;13.30;99.90;;;;;;5077724;28;19928;-79
2022/09/21 07:50:11;;;;;;;;;;;13.40;99.90;;;;;;5057900;28;20532;-79
2022/09/21 07:52:37;;;;;;;;;;;;;;;;;;5047186;28;19924;-79
2022/09/21 07:55:03;;;;;;;;;;;14.40;99.90;;;;;;5053562;28;20588;-79
2022/09/21 08:00:13;;;;;;;;;;;17.00;99.90;;;;;;5080680;28;20001;-79
2022/09/21 08:02:39;;;;;;;;;;;18.20;99.90;;;;;;5038300;28;19931;-79
2022/09/21 08:05:15;;;;;;;;;;;18.70;99.90;;;;;;5073082;28;19924;-80
2022/09/21 08:07:41;;;;;;;;;;;18.90;99.90;;;;;;5056341;28;19924;-82
2022/09/21 08:10:07;;;;;;;;;;;19.20;99.90;;;;;;5051402;28;19985;-80
2022/09/21 08:12:33;;;;;;;;;;;19.90;99.90;;;;;;5067683;28;20399;-80
2022/09/21 08:15:01;;;;;;;;;;;20.00;99.90;;;;;;5038787;28;20205;-80
2022/09/21 08:17:28;;;;;;;;;;;20.40;99.90;;;;;;5041791;28;20459;-81
2022/09/21 08:19:55;;;;;;;;;;;20.70;99.90;;;;;;5079454;28;19977;-79
2022/09/21 08:22:23;;;;;;;;;;;20.80;99.90;;;;;;5039174;28;19936;-80
2022/09/21 08:24:49;;;;;;;;;;;20.90;99.90;;;;;;5062911;28;19932;-81
2022/09/21 08:27:15;;;;;;;;;;;20.60;99.90;;;;;;5059446;28;19925;-81
2022/09/21 08:29:42;;;;;;;;;;;20.30;99.90;;;;;;5049390;28;20483;-80
2022/09/21 08:32:07;;;;;;;;;;;19.90;99.90;;;;;;5046741;28;20134;-81
2022/09/21 08:34:35;;;;;;;;;;;19.50;99.90;;;;;;5074046;28;20573;-79
2022/09/21 08:40:23;;;;;;;;;;;18.50;99.90;;;;;;5071349;28;20011;-96
2022/09/21 08:42:52;;;;;;;;;;;18.10;99.90;;;;;;5067101;28;19949;-91
2022/09/21 08:45:20;;;;;;;;;;;17.80;99.90;;;;;;5106111;28;19931;-96
2022/09/21 08:47:47;;;;;;;;;;;17.70;99.90;;;;;;5087103;28;19924;-82
2022/09/21 08:50:19;;;;;;;;;;;17.60;99.90;;;;;;5083021;28;19924;-84
2022/09/21 08:52:47;;;;;;;;;;;17.60;99.90;;;;;;5095560;28;19939;-88
2022/09/21 08:55:17;;;;;;;;;;;17.60;99.90;;;;;;5080465;28;19924;-91
2022/09/21 08:57:43;;;;;;;;;;;17.50;99.90;;;;;;5086753;28;19924;-86
2022/09/21 09:00:13;;;;;;;;;;;17.50;99.90;;;;;;5073327;28;19931;-82
2022/09/21 09:02:45;;;;;;;;;;;17.50;99.90;;;;;;5103748;28;20402;-89
2022/09/21 09:05:29;;;;;;;;;;;17.50;99.90;;;;;;5073977;28;20423;-79
2022/09/21 09:08:18;;;;;;;;;;;17.50;99.90;;;;;;5062947;28;19969;-81
2022/09/21 09:10:50;;;;;;;;;;;17.50;99.90;;;;;;5068635;28;20647;-82
2022/09/21 09:13:33;;;;;;;;;;;17.60;99.90;;;;;;5102006;28;19927;-81
2022/09/21 09:15:59;;;;;;;;;;;17.60;99.90;;;;;;5079549;28;20002;-82
2022/09/21 09:18:40;;;;;;;;;;;17.50;99.90;;;;;;5062994;28;19920;-81
2022/09/21 09:21:13;;;;;;;;;;;17.50;99.90;;;;;;5089562;28;19928;-81
2022/09/21 09:23:50;;;;;;;;;;;17.50;99.90;;;;;;5065127;28;19944;-83
2022/09/21 09:26:38;;;;;;;;;;;17.40;99.90;;;;;;5082322;28;19931;-85
2022/09/21 09:29:16;;;;;;;;;;;17.50;99.90;;;;;;5070165;28;19924;-82
2022/09/21 09:31:43;;;;;;;;;;;17.60;99.90;;;;;;5066383;28;19977;-81
2022/09/21 09:34:28;;;;;;;;;;;17.60;99.90;;;;;;5088545;28;19924;-79
2022/09/21 09:36:57;;;;;;;;;;;17.70;99.90;;;;;;5086328;28;19927;-85
2022/09/21 09:39:23;;;;;;;;;;;17.80;99.90;;;;;;5083550;28;19992;-83
2022/09/21 09:42:07;;;;;;;;;;;17.80;99.90;;;;;;5082351;28;19964;-88
2022/09/21 09:44:47;;;;;;;;;;;17.70;99.90;;;;;;5082985;28;19985;-80
2022/09/21 09:47:16;;;;;;;;;;;17.70;99.90;;;;;;5064580;28;19931;-83
2022/09/21 09:49:44;;;;;;;;;;;17.80;99.90;;;;;;5070663;28;19924;-83
2022/09/21 09:52:12;;;;;;;;;;;18.00;99.90;;;;;;5069919;28;19950;-83
2022/09/21 09:54:47;;;;;;;;;;;18.10;99.90;;;;;;5061860;28;19924;-83
2022/09/21 09:57:14;;;;;;;;;;;18.10;99.90;;;;;;5049939;28;19954;-83
2022/09/21 09:59:48;;;;;;;;;;;18.10;99.90;;;;;;5078066;28;19927;-86
2022/09/21 10:02:17;;;;;;;;;;;18.00;99.90;;;;;;5085012;28;20006;-82
2022/09/21 10:05:02;;;;;;;;;;;18.00;99.90;;;;;;5060954;28;19931;-83
2022/09/21 10:07:50;;;;;;;;;;;17.90;99.90;;;;;;5078382;28;19929;-83
2022/09/21 10:10:28;;;;;;;;;;;17.90;99.90;;;;;;5061938;28;19928;-83
2022/09/21 10:12:55;;;;;;;;;;;17.90;99.90;;;;;;5081951;28;20538;-84
2022/09/21 10:15:22;;;;;;;;;;;17.90;99.90;;;;;;5061748;28;19984;-83
2022/09/21 10:17:55;;;;;;;;;;;18.00;99.90;;;;;;5061800;28;20088;-85
2022/09/21 10:20:24;;;;;;;;;;;18.10;99.90;;;;;;5065947;28;20102;-84
2022/09/21 10:22:55;;;;;;;;;;;18.00;99.90;;;;;;5063617;28;20290;-82
2022/09/21 10:25:20;;;;;;;;;;;18.00;99.90;;;;;;5065045;28;19932;-84
2022/09/21 10:27:48;;;;;;;;;;;18.00;99.90;;;;;;5083550;28;19920;-81
2022/09/21 10:30:29;;;;;;;;;;;18.10;99.90;;;;;;5069575;28;19988;-83
2022/09/21 10:32:56;;;;;;;;;;;18.20;99.90;;;;;;5081794;28;19932;-82
2022/09/21 10:35:22;;;;;;;;;;;18.40;99.90;;;;;;5081401;28;19924;-84
2022/09/21 10:38:08;;;;;;;;;;;18.40;99.90;;;;;;5070482;28;19924;-84
2022/09/21 10:40:38;;;;;;;;;;;18.40;99.90;;;;;;5065060;28;20031;-84
2022/09/21 10:43:04;;;;;;;;;;;18.30;99.90;;;;;;5075441;28;19990;-84
2022/09/21 10:45:30;;;;;;;;;;;18.00;99.90;;;;;;5070575;28;19990;-84
2022/09/21 10:47:56;;;;;;;;;;;17.70;99.90;;;;;;5068637;28;19930;-84
2022/09/21 10:50:36;;;;;;;;;;;17.40;99.90;;;;;;5061034;28;20011;-85
2022/09/21 10:53:21;;;;;;;;;;;17.10;99.90;;;;;;5068472;28;19978;-83
2022/09/21 10:56:02;;;;;;;;;;;16.90;99.90;;;;;;5068258;28;19924;-84
2022/09/21 10:58:28;;;;;;;;;;;16.70;99.90;;;;;;5084910;28;19924;-83
2022/09/21 11:00:56;;;;;;;;;;;16.70;99.90;;;;;;5068594;28;19927;-82
2022/09/21 11:03:27;;;;;;;;;;;16.80;99.90;;;;;;5069577;28;19935;-87
2022/09/21 11:05:55;;;;;;;;;;;17.00;99.90;;;;;;5063864;28;19950;-83
2022/09/21 11:08:37;;;;;;;;;;;17.00;99.90;;;;;;5085458;28;19932;-83
2022/09/21 11:17:53;;;;;;;;;;;17.60;99.90;;;;;;5087586;28;19924;-85
2022/09/21 11:20:22;;;;;;;;;;;17.70;99.90;;;;;;5067926;28;19924;-82
2022/09/21 11:23:02;;;;;;;;;;;17.80;99.90;;;;;;5081652;28;19920;-83
2022/09/21 11:25:29;;;;;;;;;;;18.00;99.90;;;;;;5065764;28;19934;-83
2022/09/21 11:28:18;;;;;;;;;;;18.10;99.90;;;;;;5057846;28;20504;-82
2022/09/21 11:30:55;;;;;;;;;;;18.30;99.90;;;;;;5080715;28;19935;-83
2022/09/21 11:33:21;;;;;;;;;;;18.50;99.90;;;;;;5081096;28;20298;-83
2022/09/21 11:35:53;;;;;;;;;;;18.50;99.90;;;;;;5065279;28;19924;-82
2022/09/21 11:38:38;;;;;;;;;;;18.60;99.90;;;;;;5077829;28;19924;-82
2022/09/21 11:41:05;;;;;;;;;;;18.60;99.90;;;;;;5062184;28;21767;-84
2022/09/21 11:43:33;;;;;;;;;;;18.60;99.90;;;;;;5065549;28;19925;-83
2022/09/21 11:46:21;;;;;;;;;;;18.60;99.90;;;;;;5090019;28;19924;-83
2022/09/21 11:49:26;;;;;;;;;;;18.70;99.90;;;;;;5055348;28;20008;-81
2022/09/21 11:51:55;;;;;;;;;;;18.60;99.90;;;;;;5003526;28;19964;-82
2022/09/21 11:54:36;;;;;;;;;;;18.60;99.90;;;;;;5051528;28;19928;-84
2022/09/21 11:57:05;;;;;;;;;;;18.60;99.90;;;;;;5077556;28;19939;-84
2022/09/21 11:59:41;;;;;;;;;;;18.60;99.90;;;;;;5083691;28;20011;-82
2022/09/21 12:02:10;;;;;;;;;;;18.60;99.90;;;;;;5043216;28;19946;-82
2022/09/21 12:04:48;;;;;;;;;;;18.60;99.90;;;;;;5061189;28;20026;-84
2022/09/21 12:07:17;;;;;;;;;;;18.60;99.90;;;;;;5076782;28;19932;-87
2022/09/21 12:09:43;;;;;;;;;;;18.50;99.90;;;;;;5070082;28;19973;-86
2022/09/21 12:12:09;;;;;;;;;;;18.50;99.90;;;;;;5053332;28;19924;-82
2022/09/21 12:14:54;;;;;;;;;;;18.50;99.90;;;;;;5056072;28;20731;-84
2022/09/21 12:17:20;;;;;;;;;;;18.60;99.90;;;;;;5069425;28;19932;-83
2022/09/21 12:19:55;;;;;;;;;;;18.50;99.90;;;;;;5065039;28;19928;-84
2022/09/21 12:22:28;;;;;;;;;;;18.60;99.90;;;;;;5072559;28;20019;-82
2022/09/21 12:25:09;;;;;;;;;;;18.60;99.90;;;;;;5080377;28;19927;-80
2022/09/21 12:27:42;;;;;;;;;;;18.70;99.90;;;;;;5077479;28;20020;-83
2022/09/21 12:30:12;;;;;;;;;;;18.60;99.90;;;;;;5065634;28;20489;-81
2022/09/21 12:32:48;;;;;;;;;;;18.70;99.90;;;;;;5061950;28;20260;-80
2022/09/21 12:35:16;;;;;;;;;;;18.60;99.90;;;;;;5082739;28;19957;-79
2022/09/21 12:37:49;;;;;;;;;;;18.70;99.90;;;;;;5077506;28;19978;-82
2022/09/21 12:40:20;;;;;;;;;;;18.50;99.30;;;;;;5055419;28;19928;-81
2022/09/21 12:42:48;;;;;;;;;;;18.60;99.90;;;;;;5057570;28;20336;-80
2022/09/21 12:45:20;;;;;;;;;;;18.60;99.90;;;;;;5061550;28;19931;-80
2022/09/21 12:47:52;;;;;;;;;;;18.50;99.90;;;;;;5061378;28;19924;-80
2022/09/21 12:50:39;;;;;;;;;;;18.60;99.90;;;;;;5048840;28;19932;-80
2022/09/21 12:53:05;;;;;;;;;;;18.50;99.90;;;;;;5069842;28;20491;-80
2022/09/21 12:55:44;;;;;;;;;;;18.50;99.90;;;;;;5051510;28;20046;-80
2022/09/21 12:58:15;;;;;;;;;;;18.50;99.90;;;;;;5062949;28;19928;-80
2022/09/21 13:01:02;;;;;;;;;;;18.50;99.90;;;;;;5049727;28;20029;-85
2022/09/21 13:03:30;;;;;;;;;;;18.50;98.40;;;;;;5019885;28;20059;-81
2022/09/21 13:06:05;;;;;;;;;;;18.50;99.90;;;;;;5064504;28;19936;-87
2022/09/21 13:08:49;;;;;;;;;;;18.50;99.90;;;;;;5052465;28;20018;-83
2022/09/21 13:11:20;;;;;;;;;;;18.50;98.80;;;;;;5077985;28;19924;-83
2022/09/21 13:13:51;;;;;;;;;;;18.50;98.50;;;;;;5064857;28;20425;-81
2022/09/21 13:16:23;;;;;;;;;;;18.50;99.90;;;;;;5051323;28;20409;-88
2022/09/21 13:18:57;;;;;;;;;;;18.50;99.90;;;;;;5060964;28;19928;-82
2022/09/21 13:21:34;;;;;;;;;;;18.50;99.90;;;;;;5081124;28;19924;-82
2022/09/21 13:24:01;;;;;;;;;;;18.50;99.90;;;;;;5071145;28;20440;-83
2022/09/21 13:26:33;;;;;;;;;;;18.50;99.90;;;;;;5054536;28;20061;-89
2022/09/21 13:29:03;;;;;;;;;;;18.50;99.90;;;;;;5050287;28;19928;-84
2022/09/21 13:31:38;;;;;;;;;;;18.50;99.90;;;;;;5051796;28;20016;-84
2022/09/21 13:34:07;;;;;;;;;;;18.40;99.90;;;;;;5067854;28;20466;-90
2022/09/21 13:36:36;;;;;;;;;;;18.40;99.90;;;;;;5069098;28;19978;-82
2022/09/21 13:39:11;;;;;;;;;;;18.40;97.40;;;;;;5062812;28;19924;-86
2022/09/21 13:41:37;;;;;;;;;;;18.30;99.50;;;;;;5045248;28;19981;-82
2022/09/21 13:44:04;;;;;;;;;;;18.20;99.40;;;;;;5055946;28;20010;-82
2022/09/21 13:46:36;;;;;;;;;;;18.20;99.90;;;;;;5049515;28;19932;-84
2022/09/21 13:49:22;;;;;;;;;;;18.20;99.70;;;;;;5062790;28;19924;-83
2022/09/21 13:52:06;;;;;;;;;;;18.20;99.90;;;;;;5057639;28;20386;-84
2022/09/21 13:54:38;;;;;;;;;;;18.10;97.00;;;;;;5081355;28;19928;-88
2022/09/21 13:57:04;;;;;;;;;;;18.00;97.80;;;;;;5062762;28;19958;-87
2022/09/21 13:59:32;;;;;;;;;;;17.90;98.60;;;;;;5073574;28;20404;-83
2022/09/21 14:01:59;;;;;;;;;;;17.90;99.90;;;;;;5078079;28;20293;-88
2022/09/21 14:04:25;;;;;;;;;;;17.90;99.90;;;;;;5043722;28;19939;-85
2022/09/21 14:07:24;;;;;;;;;;;17.80;99.90;;;;;;5060998;28;20007;-86
2022/09/21 14:09:56;;;;;;;;;;;17.90;99.90;;;;;;5066211;28;20573;-87
2022/09/21 14:12:24;;;;;;;;;;;17.80;99.90;;;;;;5063515;28;19931;-85
2022/09/21 14:15:11;;;;;;;;;;;17.80;99.90;;;;;;5081171;28;20334;-85
2022/09/21 14:17:40;;;;;;;;;;;17.70;99.90;;;;;;5067122;28;19932;-86
2022/09/21 14:20:26;;;;;;;;;;;17.60;99.90;;;;;;5049123;28;19928;-88
2022/09/21 14:23:26;;;;;;;;;;;17.60;99.90;;;;;;5080438;28;19928;-91
2022/09/21 14:25:57;;;;;;;;;;;17.50;99.90;;;;;;5065925;28;20871;-90
2022/09/21 14:28:33;;;;;;;;;;;17.50;99.90;;;;;;5087305;28;19999;-84
2022/09/21 14:31:01;;;;;;;;;;;17.40;99.90;;;;;;5064681;28;19928;-87
2022/09/21 14:33:29;;;;;;;;;;;17.30;99.90;;;;;;5060284;28;20876;-85
2022/09/21 14:35:55;;;;;;;;;;;17.20;99.90;;;;;;5067492;28;19932;-86
2022/09/21 14:38:21;;;;;;;;;;;17.20;99.90;;;;;;5073237;28;19934;-86
2022/09/21 14:40:48;;;;;;;;;;;17.10;99.90;;;;;;5062603;28;20491;-87
2022/09/21 14:43:18;;;;;;;;;;;17.20;99.90;;;;;;5062905;28;19984;-90
2022/09/21 14:45:44;;;;;;;;;;;17.10;99.90;;;;;;5067515;28;19958;-88
2022/09/21 14:48:17;;;;;;;;;;;17.10;99.90;;;;;;5063904;28;20018;-85
2022/09/21 14:50:47;;;;;;;;;;;17.10;99.90;;;;;;5062227;28;19930;-84
2022/09/21 14:53:13;;;;;;;;;;;17.10;99.90;;;;;;5059224;28;20276;-84
2022/09/21 14:55:43;;;;;;;;;;;17.10;99.90;;;;;;5059875;28;19931;-86
2022/09/21 14:58:15;;;;;;;;;;;17.00;99.90;;;;;;5060359;28;20006;-85
2022/09/21 15:00:47;;;;;;;;;;;16.90;99.90;;;;;;5082218;28;19932;-81
2022/09/21 15:03:21;;;;;;;;;;;16.80;99.90;;;;;;5064129;28;19931;-86